sensor_id;sensor_type;location;lat;lon;timestamp;P1;durP1;ratioP1;P2;durP2;ratioP2
19036;SDS011;9651;49.138;8.900;2023-04-25T00:03:10;5.70;;;3.80;;
19036;SDS011;9651;49.138;8.900;2023-04-25T00:07:13;5.63;;;3.53;;
19036;SDS011;9651;49.138;8.900;2023-04-25T00:11:15;4.13;;;3.33;;
19036;SDS011;9651;49.138;8.900;2023-04-25T00:15:17;5.10;;;3.60;;
19036;SDS011;9651;49.138;8.900;2023-04-25T00:19:19;6.00;;;3.47;;
19036;SDS011;9651;49.138;8.900;2023-04-25T00:23:22;4.57;;;3.23;;
19036;SDS011;9651;49.138;8.900;2023-04-25T00:27:24;4.30;;;3.43;;
19036;SDS011;9651;49.138;8.900;2023-04-25T00:31:26;6.70;;;3.20;;
19036;SDS011;9651;49.138;8.900;2023-04-25T00:35:29;3.93;;;3.40;;
19036;SDS011;9651;49.138;8.900;2023-04-25T00:39:32;3.73;;;3.30;;
19036;SDS011;9651;49.138;8.900;2023-04-25T00:43:34;6.13;;;3.70;;
19036;SDS011;9651;49.138;8.900;2023-04-25T00:47:38;5.90;;;3.90;;
19036;SDS011;9651;49.138;8.900;2023-04-25T00:51:40;4.00;;;3.60;;
19036;SDS011;9651;49.138;8.900;2023-04-25T00:55:45;4.30;;;3.33;;
19036;SDS011;9651;49.138;8.900;2023-04-25T00:59:47;4.47;;;3.30;;
19036;SDS011;9651;49.138;8.900;2023-04-25T01:03:51;3.20;;;2.90;;
19036;SDS011;9651;49.138;8.900;2023-04-25T01:07:55;4.37;;;3.60;;
19036;SDS011;9651;49.138;8.900;2023-04-25T01:11:59;5.57;;;3.77;;
19036;SDS011;9651;49.138;8.900;2023-04-25T01:16:02;4.90;;;4.07;;
19036;SDS011;9651;49.138;8.900;2023-04-25T01:20:04;4.00;;;3.60;;
19036;SDS011;9651;49.138;8.900;2023-04-25T01:24:10;5.90;;;3.67;;
19036;SDS011;9651;49.138;8.900;2023-04-25T01:28:13;4.40;;;3.37;;
19036;SDS011;9651;49.138;8.900;2023-04-25T01:32:15;4.70;;;3.50;;
19036;SDS011;9651;49.138;8.900;2023-04-25T01:36:18;4.50;;;3.60;;
19036;SDS011;9651;49.138;8.900;2023-04-25T01:40:21;3.90;;;3.27;;
19036;SDS011;9651;49.138;8.900;2023-04-25T01:44:25;5.13;;;3.60;;
19036;SDS011;9651;49.138;8.900;2023-04-25T01:48:27;3.60;;;3.20;;
19036;SDS011;9651;49.138;8.900;2023-04-25T01:52:30;4.20;;;3.73;;
19036;SDS011;9651;49.138;8.900;2023-04-25T01:56:36;5.27;;;3.60;;
19036;SDS011;9651;49.138;8.900;2023-04-25T02:00:40;5.03;;;3.73;;
19036;SDS011;9651;49.138;8.900;2023-04-25T02:04:42;5.30;;;3.67;;
19036;SDS011;9651;49.138;8.900;2023-04-25T02:08:44;4.50;;;3.20;;
19036;SDS011;9651;49.138;8.900;2023-04-25T02:12:49;4.00;;;3.20;;
19036;SDS011;9651;49.138;8.900;2023-04-25T02:17:09;5.77;;;3.33;;
19036;SDS011;9651;49.138;8.900;2023-04-25T02:21:12;4.00;;;3.60;;
19036;SDS011;9651;49.138;8.900;2023-04-25T02:25:16;4.20;;;3.43;;
19036;SDS011;9651;49.138;8.900;2023-04-25T02:29:21;4.63;;;3.97;;
19036;SDS011;9651;49.138;8.900;2023-04-25T02:33:23;7.27;;;3.27;;
19036;SDS011;9651;49.138;8.900;2023-04-25T02:37:25;4.30;;;2.93;;
19036;SDS011;9651;49.138;8.900;2023-04-25T02:41:27;3.40;;;2.77;;
19036;SDS011;9651;49.138;8.900;2023-04-25T02:45:31;5.03;;;3.90;;
19036;SDS011;9651;49.138;8.900;2023-04-25T02:49:32;4.97;;;3.33;;
19036;SDS011;9651;49.138;8.900;2023-04-25T02:53:35;4.37;;;3.43;;
19036;SDS011;9651;49.138;8.900;2023-04-25T02:57:37;4.70;;;3.50;;
19036;SDS011;9651;49.138;8.900;2023-04-25T03:01:41;5.50;;;3.50;;
19036;SDS011;9651;49.138;8.900;2023-04-25T03:05:43;6.80;;;4.40;;
19036;SDS011;9651;49.138;8.900;2023-04-25T03:09:45;4.27;;;3.80;;
19036;SDS011;9651;49.138;8.900;2023-04-25T03:13:47;5.33;;;4.10;;
19036;SDS011;9651;49.138;8.900;2023-04-25T03:17:50;4.00;;;3.40;;
19036;SDS011;9651;49.138;8.900;2023-04-25T03:21:52;5.07;;;3.97;;
19036;SDS011;9651;49.138;8.900;2023-04-25T03:25:54;4.67;;;3.93;;
19036;SDS011;9651;49.138;8.900;2023-04-25T03:29:56;6.00;;;4.13;;
19036;SDS011;9651;49.138;8.900;2023-04-25T03:33:59;5.90;;;4.00;;
19036;SDS011;9651;49.138;8.900;2023-04-25T03:38:01;6.97;;;4.50;;
19036;SDS011;9651;49.138;8.900;2023-04-25T03:42:08;6.03;;;4.43;;
19036;SDS011;9651;49.138;8.900;2023-04-25T03:46:10;7.13;;;4.57;;
19036;SDS011;9651;49.138;8.900;2023-04-25T03:50:14;6.20;;;4.57;;
19036;SDS011;9651;49.138;8.900;2023-04-25T03:54:16;8.03;;;4.83;;
19036;SDS011;9651;49.138;8.900;2023-04-25T03:58:29;6.90;;;4.50;;
19036;SDS011;9651;49.138;8.900;2023-04-25T04:02:31;6.40;;;4.77;;
19036;SDS011;9651;49.138;8.900;2023-04-25T04:06:36;7.80;;;5.10;;
19036;SDS011;9651;49.138;8.900;2023-04-25T04:10:49;6.30;;;4.87;;
19036;SDS011;9651;49.138;8.900;2023-04-25T04:14:51;6.63;;;5.00;;
19036;SDS011;9651;49.138;8.900;2023-04-25T04:18:53;6.13;;;4.67;;
19036;SDS011;9651;49.138;8.900;2023-04-25T04:22:56;7.03;;;5.37;;
19036;SDS011;9651;49.138;8.900;2023-04-25T04:26:59;6.33;;;5.20;;
19036;SDS011;9651;49.138;8.900;2023-04-25T04:31:09;6.53;;;5.00;;
19036;SDS011;9651;49.138;8.900;2023-04-25T04:35:11;8.83;;;5.60;;
19036;SDS011;9651;49.138;8.900;2023-04-25T04:39:15;7.43;;;5.07;;
19036;SDS011;9651;49.138;8.900;2023-04-25T04:43:32;6.73;;;5.63;;
19036;SDS011;9651;49.138;8.900;2023-04-25T04:48:00;6.80;;;5.23;;
19036;SDS011;9651;49.138;8.900;2023-04-25T04:52:08;8.27;;;5.73;;
19036;SDS011;9651;49.138;8.900;2023-04-25T04:56:26;6.00;;;5.03;;
19036;SDS011;9651;49.138;8.900;2023-04-25T05:00:56;6.73;;;5.20;;
19036;SDS011;9651;49.138;8.900;2023-04-25T05:05:24;6.73;;;5.30;;
19036;SDS011;9651;49.138;8.900;2023-04-25T05:09:58;8.00;;;5.50;;
19036;SDS011;9651;49.138;8.900;2023-04-25T05:14:07;6.63;;;5.27;;
19036;SDS011;9651;49.138;8.900;2023-04-25T05:18:29;7.50;;;6.03;;
19036;SDS011;9651;49.138;8.900;2023-04-25T05:22:40;7.13;;;4.83;;
19036;SDS011;9651;49.138;8.900;2023-04-25T05:27:06;7.03;;;5.37;;
19036;SDS011;9651;49.138;8.900;2023-04-25T05:31:28;6.87;;;4.50;;
19036;SDS011;9651;49.138;8.900;2023-04-25T05:35:41;6.33;;;4.87;;
19036;SDS011;9651;49.138;8.900;2023-04-25T05:39:44;6.50;;;4.60;;
19036;SDS011;9651;49.138;8.900;2023-04-25T05:44:18;5.53;;;4.93;;
19036;SDS011;9651;49.138;8.900;2023-04-25T05:48:42;6.40;;;4.90;;
19036;SDS011;9651;49.138;8.900;2023-04-25T05:53:09;7.00;;;4.83;;
19036;SDS011;9651;49.138;8.900;2023-04-25T05:57:21;6.93;;;5.40;;
19036;SDS011;9651;49.138;8.900;2023-04-25T06:01:24;5.60;;;4.40;;
19036;SDS011;9651;49.138;8.900;2023-04-25T06:05:28;5.47;;;4.43;;
19036;SDS011;9651;49.138;8.900;2023-04-25T06:09:30;6.00;;;4.53;;
19036;SDS011;9651;49.138;8.900;2023-04-25T06:13:33;7.23;;;5.00;;
19036;SDS011;9651;49.138;8.900;2023-04-25T06:17:35;7.43;;;5.40;;
19036;SDS011;9651;49.138;8.900;2023-04-25T06:21:38;6.50;;;4.10;;
19036;SDS011;9651;49.138;8.900;2023-04-25T06:25:42;5.77;;;4.00;;
19036;SDS011;9651;49.138;8.900;2023-04-25T06:29:44;9.17;;;6.43;;
19036;SDS011;9651;49.138;8.900;2023-04-25T06:33:46;9.50;;;4.93;;
19036;SDS011;9651;49.138;8.900;2023-04-25T06:37:49;4.83;;;4.10;;
19036;SDS011;9651;49.138;8.900;2023-04-25T06:41:55;7.40;;;4.87;;
19036;SDS011;9651;49.138;8.900;2023-04-25T06:46:18;4.93;;;4.00;;
19036;SDS011;9651;49.138;8.900;2023-04-25T06:50:22;5.47;;;4.63;;
19036;SDS011;9651;49.138;8.900;2023-04-25T06:54:25;5.93;;;4.17;;
19036;SDS011;9651;49.138;8.900;2023-04-25T06:58:37;5.00;;;4.23;;
19036;SDS011;9651;49.138;8.900;2023-04-25T07:03:04;6.67;;;4.90;;
19036;SDS011;9651;49.138;8.900;2023-04-25T07:07:06;5.93;;;4.53;;
19036;SDS011;9651;49.138;8.900;2023-04-25T07:11:29;7.03;;;5.70;;
19036;SDS011;9651;49.138;8.900;2023-04-25T07:15:31;7.07;;;4.77;;
19036;SDS011;9651;49.138;8.900;2023-04-25T07:19:34;5.10;;;4.57;;
19036;SDS011;9651;49.138;8.900;2023-04-25T07:23:38;7.13;;;5.53;;
19036;SDS011;9651;49.138;8.900;2023-04-25T07:27:47;5.77;;;5.03;;
19036;SDS011;9651;49.138;8.900;2023-04-25T07:31:51;6.80;;;4.90;;
19036;SDS011;9651;49.138;8.900;2023-04-25T07:35:55;7.33;;;5.50;;
19036;SDS011;9651;49.138;8.900;2023-04-25T07:39:57;6.43;;;5.50;;
19036;SDS011;9651;49.138;8.900;2023-04-25T07:44:01;7.20;;;5.90;;
19036;SDS011;9651;49.138;8.900;2023-04-25T07:48:05;8.53;;;5.50;;
19036;SDS011;9651;49.138;8.900;2023-04-25T07:52:10;9.03;;;6.07;;
19036;SDS011;9651;49.138;8.900;2023-04-25T07:56:16;7.00;;;5.43;;
19036;SDS011;9651;49.138;8.900;2023-04-25T08:00:23;8.67;;;6.57;;
19036;SDS011;9651;49.138;8.900;2023-04-25T08:04:36;8.33;;;6.77;;
19036;SDS011;9651;49.138;8.900;2023-04-25T08:08:41;10.03;;;6.67;;
19036;SDS011;9651;49.138;8.900;2023-04-25T08:12:46;9.17;;;6.37;;
19036;SDS011;9651;49.138;8.900;2023-04-25T08:16:50;9.40;;;6.60;;
19036;SDS011;9651;49.138;8.900;2023-04-25T08:20:53;10.00;;;7.10;;
19036;SDS011;9651;49.138;8.900;2023-04-25T08:24:55;10.13;;;7.13;;
19036;SDS011;9651;49.138;8.900;2023-04-25T08:28:57;8.93;;;7.80;;
19036;SDS011;9651;49.138;8.900;2023-04-25T08:33:01;11.00;;;7.47;;
19036;SDS011;9651;49.138;8.900;2023-04-25T08:37:29;11.17;;;7.67;;
19036;SDS011;9651;49.138;8.900;2023-04-25T08:41:36;11.83;;;8.13;;
19036;SDS011;9651;49.138;8.900;2023-04-25T08:45:40;12.57;;;8.77;;
19036;SDS011;9651;49.138;8.900;2023-04-25T08:49:49;29.47;;;14.23;;
19036;SDS011;9651;49.138;8.900;2023-04-25T08:53:54;13.33;;;9.87;;
19036;SDS011;9651;49.138;8.900;2023-04-25T08:57:57;10.07;;;7.47;;
19036;SDS011;9651;49.138;8.900;2023-04-25T09:02:00;5.70;;;5.10;;
19036;SDS011;9651;49.138;8.900;2023-04-25T09:06:06;8.10;;;6.37;;
19036;SDS011;9651;49.138;8.900;2023-04-25T09:10:09;6.00;;;4.73;;
19036;SDS011;9651;49.138;8.900;2023-04-25T09:14:13;4.57;;;3.63;;
19036;SDS011;9651;49.138;8.900;2023-04-25T09:18:38;4.77;;;4.00;;
19036;SDS011;9651;49.138;8.900;2023-04-25T09:22:42;5.00;;;3.90;;
19036;SDS011;9651;49.138;8.900;2023-04-25T09:26:48;4.83;;;4.10;;
19036;SDS011;9651;49.138;8.900;2023-04-25T09:30:53;3.63;;;2.87;;
19036;SDS011;9651;49.138;8.900;2023-04-25T09:35:03;4.30;;;2.80;;
19036;SDS011;9651;49.138;8.900;2023-04-25T09:39:08;3.77;;;3.37;;
19036;SDS011;9651;49.138;8.900;2023-04-25T09:43:19;5.97;;;3.47;;
19036;SDS011;9651;49.138;8.900;2023-04-25T09:47:27;3.00;;;2.70;;
19036;SDS011;9651;49.138;8.900;2023-04-25T09:51:35;5.73;;;3.33;;
19036;SDS011;9651;49.138;8.900;2023-04-25T09:55:40;9.23;;;6.50;;
19036;SDS011;9651;49.138;8.900;2023-04-25T09:59:45;11.03;;;7.43;;
19036;SDS011;9651;49.138;8.900;2023-04-25T10:03:48;10.87;;;7.17;;
19036;SDS011;9651;49.138;8.900;2023-04-25T10:08:14;13.90;;;7.30;;
19036;SDS011;9651;49.138;8.900;2023-04-25T10:12:18;10.43;;;6.97;;
19036;SDS011;9651;49.138;8.900;2023-04-25T10:16:20;10.40;;;6.87;;
19036;SDS011;9651;49.138;8.900;2023-04-25T10:20:23;13.73;;;5.73;;
19036;SDS011;9651;49.138;8.900;2023-04-25T10:24:25;14.30;;;5.93;;
19036;SDS011;9651;49.138;8.900;2023-04-25T10:28:30;11.20;;;5.57;;
19036;SDS011;9651;49.138;8.900;2023-04-25T10:32:59;10.00;;;5.30;;
19036;SDS011;9651;49.138;8.900;2023-04-25T10:37:01;9.55;;;5.43;;
19036;SDS011;9651;49.138;8.900;2023-04-25T10:41:03;9.03;;;5.50;;
19036;SDS011;9651;49.138;8.900;2023-04-25T10:45:09;9.30;;;4.82;;
19036;SDS011;9651;49.138;8.900;2023-04-25T10:49:16;8.17;;;4.50;;
19036;SDS011;9651;49.138;8.900;2023-04-25T10:53:30;7.70;;;4.30;;
19036;SDS011;9651;49.138;8.900;2023-04-25T10:57:39;8.50;;;4.32;;
19036;SDS011;9651;49.138;8.900;2023-04-25T11:01:43;8.20;;;4.37;;
19036;SDS011;9651;49.138;8.900;2023-04-25T11:05:46;14.70;;;5.30;;
19036;SDS011;9651;49.138;8.900;2023-04-25T11:09:49;10.63;;;4.60;;
19036;SDS011;9651;49.138;8.900;2023-04-25T11:13:51;8.93;;;4.20;;
19036;SDS011;9651;49.138;8.900;2023-04-25T11:17:55;9.00;;;3.90;;
19036;SDS011;9651;49.138;8.900;2023-04-25T11:21:57;8.83;;;3.97;;
19036;SDS011;9651;49.138;8.900;2023-04-25T11:25:59;8.70;;;4.03;;
19036;SDS011;9651;49.138;8.900;2023-04-25T11:30:12;8.03;;;4.23;;
19036;SDS011;9651;49.138;8.900;2023-04-25T11:34:18;8.52;;;5.40;;
19036;SDS011;9651;49.138;8.900;2023-04-25T11:38:19;7.10;;;4.70;;
19036;SDS011;9651;49.138;8.900;2023-04-25T11:42:22;10.80;;;5.30;;
19036;SDS011;9651;49.138;8.900;2023-04-25T11:46:24;11.77;;;5.17;;
19036;SDS011;9651;49.138;8.900;2023-04-25T11:50:27;8.87;;;6.57;;
19036;SDS011;9651;49.138;8.900;2023-04-25T11:54:29;9.87;;;6.73;;
19036;SDS011;9651;49.138;8.900;2023-04-25T11:58:32;8.43;;;5.90;;
19036;SDS011;9651;49.138;8.900;2023-04-25T12:02:34;12.93;;;6.50;;
19036;SDS011;9651;49.138;8.900;2023-04-25T12:06:38;9.90;;;6.10;;
19036;SDS011;9651;49.138;8.900;2023-04-25T12:10:41;8.83;;;5.63;;
19036;SDS011;9651;49.138;8.900;2023-04-25T12:14:45;8.53;;;5.57;;
19036;SDS011;9651;49.138;8.900;2023-04-25T12:18:51;13.30;;;5.80;;
19036;SDS011;9651;49.138;8.900;2023-04-25T12:22:54;9.87;;;5.93;;
19036;SDS011;9651;49.138;8.900;2023-04-25T12:26:59;15.03;;;7.63;;
19036;SDS011;9651;49.138;8.900;2023-04-25T12:31:03;11.33;;;5.77;;
19036;SDS011;9651;49.138;8.900;2023-04-25T12:35:06;10.37;;;5.53;;
19036;SDS011;9651;49.138;8.900;2023-04-25T12:39:10;10.33;;;5.37;;
19036;SDS011;9651;49.138;8.900;2023-04-25T12:43:16;9.87;;;4.90;;
19036;SDS011;9651;49.138;8.900;2023-04-25T12:47:18;11.52;;;4.78;;
19036;SDS011;9651;49.138;8.900;2023-04-25T12:51:21;8.33;;;4.50;;
19036;SDS011;9651;49.138;8.900;2023-04-25T12:55:26;7.30;;;5.27;;
19036;SDS011;9651;49.138;8.900;2023-04-25T12:59:28;7.13;;;4.07;;
19036;SDS011;9651;49.138;8.900;2023-04-25T13:03:30;8.37;;;4.30;;
19036;SDS011;9651;49.138;8.900;2023-04-25T13:07:32;9.10;;;5.00;;
19036;SDS011;9651;49.138;8.900;2023-04-25T13:11:35;8.07;;;4.22;;
19036;SDS011;9651;49.138;8.900;2023-04-25T13:15:37;5.95;;;3.08;;
19036;SDS011;9651;49.138;8.900;2023-04-25T13:19:39;4.28;;;3.00;;
19036;SDS011;9651;49.138;8.900;2023-04-25T13:23:41;5.28;;;3.40;;
19036;SDS011;9651;49.138;8.900;2023-04-25T13:27:46;5.72;;;3.40;;
19036;SDS011;9651;49.138;8.900;2023-04-25T13:31:47;7.80;;;3.75;;
19036;SDS011;9651;49.138;8.900;2023-04-25T13:35:49;7.30;;;4.15;;
19036;SDS011;9651;49.138;8.900;2023-04-25T13:39:53;4.97;;;3.22;;
19036;SDS011;9651;49.138;8.900;2023-04-25T13:43:58;11.68;;;4.03;;
19036;SDS011;9651;49.138;8.900;2023-04-25T13:48:03;3.80;;;2.65;;
19036;SDS011;9651;49.138;8.900;2023-04-25T13:52:05;6.45;;;3.17;;
19036;SDS011;9651;49.138;8.900;2023-04-25T13:56:07;4.68;;;2.80;;
19036;SDS011;9651;49.138;8.900;2023-04-25T14:00:13;6.38;;;3.40;;
19036;SDS011;9651;49.138;8.900;2023-04-25T14:04:15;7.30;;;4.50;;
19036;SDS011;9651;49.138;8.900;2023-04-25T14:08:17;9.93;;;4.47;;
19036;SDS011;9651;49.138;8.900;2023-04-25T14:12:20;7.50;;;4.25;;
19036;SDS011;9651;49.138;8.900;2023-04-25T14:16:23;8.80;;;5.55;;
19036;SDS011;9651;49.138;8.900;2023-04-25T14:20:25;7.45;;;3.92;;
19036;SDS011;9651;49.138;8.900;2023-04-25T14:24:27;4.55;;;3.70;;
19036;SDS011;9651;49.138;8.900;2023-04-25T14:28:29;6.53;;;3.50;;
19036;SDS011;9651;49.138;8.900;2023-04-25T14:32:32;4.97;;;3.40;;
19036;SDS011;9651;49.138;8.900;2023-04-25T14:36:35;4.90;;;3.63;;
19036;SDS011;9651;49.138;8.900;2023-04-25T14:40:37;3.95;;;3.50;;
19036;SDS011;9651;49.138;8.900;2023-04-25T14:44:39;5.05;;;3.47;;
19036;SDS011;9651;49.138;8.900;2023-04-25T14:48:42;48.72;;;26.27;;
19036;SDS011;9651;49.138;8.900;2023-04-25T14:52:44;11.07;;;5.15;;
19036;SDS011;9651;49.138;8.900;2023-04-25T14:56:46;4.93;;;3.35;;
19036;SDS011;9651;49.138;8.900;2023-04-25T15:00:48;6.93;;;3.42;;
19036;SDS011;9651;49.138;8.900;2023-04-25T15:04:52;5.63;;;3.17;;
19036;SDS011;9651;49.138;8.900;2023-04-25T15:08:54;6.53;;;3.30;;
19036;SDS011;9651;49.138;8.900;2023-04-25T15:12:57;4.43;;;3.50;;
19036;SDS011;9651;49.138;8.900;2023-04-25T15:16:59;5.57;;;3.60;;
19036;SDS011;9651;49.138;8.900;2023-04-25T15:21:02;5.73;;;4.07;;
19036;SDS011;9651;49.138;8.900;2023-04-25T15:25:04;8.03;;;3.70;;
19036;SDS011;9651;49.138;8.900;2023-04-25T15:29:07;5.50;;;3.27;;
19036;SDS011;9651;49.138;8.900;2023-04-25T15:33:09;5.85;;;3.65;;
19036;SDS011;9651;49.138;8.900;2023-04-25T15:37:13;7.38;;;4.18;;
19036;SDS011;9651;49.138;8.900;2023-04-25T15:41:15;8.30;;;3.97;;
19036;SDS011;9651;49.138;8.900;2023-04-25T15:45:18;9.05;;;4.18;;
19036;SDS011;9651;49.138;8.900;2023-04-25T15:49:21;7.73;;;3.63;;
19036;SDS011;9651;49.138;8.900;2023-04-25T15:53:24;12.85;;;3.75;;
19036;SDS011;9651;49.138;8.900;2023-04-25T15:57:26;7.20;;;3.57;;
19036;SDS011;9651;49.138;8.900;2023-04-25T16:01:28;5.77;;;3.50;;
19036;SDS011;9651;49.138;8.900;2023-04-25T16:05:30;9.03;;;3.33;;
19036;SDS011;9651;49.138;8.900;2023-04-25T16:09:34;6.80;;;3.70;;
19036;SDS011;9651;49.138;8.900;2023-04-25T16:13:36;5.97;;;2.90;;
19036;SDS011;9651;49.138;8.900;2023-04-25T16:17:38;6.17;;;3.20;;
19036;SDS011;9651;49.138;8.900;2023-04-25T16:21:40;5.33;;;3.93;;
19036;SDS011;9651;49.138;8.900;2023-04-25T16:25:44;6.63;;;3.80;;
19036;SDS011;9651;49.138;8.900;2023-04-25T16:29:46;6.27;;;4.03;;
19036;SDS011;9651;49.138;8.900;2023-04-25T16:33:50;5.40;;;3.70;;
19036;SDS011;9651;49.138;8.900;2023-04-25T16:37:52;6.80;;;3.73;;
19036;SDS011;9651;49.138;8.900;2023-04-25T16:41:55;8.07;;;3.93;;
19036;SDS011;9651;49.138;8.900;2023-04-25T16:45:57;17.70;;;5.77;;
19036;SDS011;9651;49.138;8.900;2023-04-25T16:50:00;9.03;;;4.20;;
19036;SDS011;9651;49.138;8.900;2023-04-25T16:54:02;10.40;;;4.73;;
19036;SDS011;9651;49.138;8.900;2023-04-25T16:58:06;10.23;;;4.67;;
19036;SDS011;9651;49.138;8.900;2023-04-25T17:02:11;7.40;;;5.00;;
19036;SDS011;9651;49.138;8.900;2023-04-25T17:06:13;10.23;;;5.10;;
19036;SDS011;9651;49.138;8.900;2023-04-25T17:10:16;11.07;;;4.73;;
19036;SDS011;9651;49.138;8.900;2023-04-25T17:14:20;9.37;;;5.23;;
19036;SDS011;9651;49.138;8.900;2023-04-25T17:18:22;10.27;;;5.30;;
19036;SDS011;9651;49.138;8.900;2023-04-25T17:22:24;10.40;;;5.70;;
19036;SDS011;9651;49.138;8.900;2023-04-25T17:26:26;14.30;;;5.30;;
19036;SDS011;9651;49.138;8.900;2023-04-25T17:30:29;12.23;;;5.77;;
19036;SDS011;9651;49.138;8.900;2023-04-25T17:34:32;9.87;;;5.27;;
19036;SDS011;9651;49.138;8.900;2023-04-25T17:38:36;10.73;;;6.00;;
19036;SDS011;9651;49.138;8.900;2023-04-25T17:42:39;7.33;;;5.47;;
19036;SDS011;9651;49.138;8.900;2023-04-25T17:46:43;21.80;;;11.70;;
19036;SDS011;9651;49.138;8.900;2023-04-25T17:50:46;11.70;;;6.83;;
19036;SDS011;9651;49.138;8.900;2023-04-25T17:54:48;12.43;;;6.93;;
19036;SDS011;9651;49.138;8.900;2023-04-25T17:58:49;13.70;;;7.33;;
19036;SDS011;9651;49.138;8.900;2023-04-25T18:02:53;13.07;;;7.30;;
19036;SDS011;9651;49.138;8.900;2023-04-25T18:06:55;12.93;;;8.23;;
19036;SDS011;9651;49.138;8.900;2023-04-25T18:10:57;11.27;;;6.60;;
19036;SDS011;9651;49.138;8.900;2023-04-25T18:14:59;12.97;;;8.23;;
19036;SDS011;9651;49.138;8.900;2023-04-25T18:19:02;10.97;;;7.53;;
19036;SDS011;9651;49.138;8.900;2023-04-25T18:23:10;14.50;;;7.50;;
19036;SDS011;9651;49.138;8.900;2023-04-25T18:27:12;11.33;;;6.87;;
19036;SDS011;9651;49.138;8.900;2023-04-25T18:31:14;12.20;;;6.83;;
19036;SDS011;9651;49.138;8.900;2023-04-25T18:35:18;12.83;;;9.53;;
19036;SDS011;9651;49.138;8.900;2023-04-25T18:39:20;11.83;;;7.20;;
19036;SDS011;9651;49.138;8.900;2023-04-25T18:43:23;10.37;;;7.23;;
19036;SDS011;9651;49.138;8.900;2023-04-25T18:47:25;13.80;;;7.97;;
19036;SDS011;9651;49.138;8.900;2023-04-25T18:51:28;14.97;;;10.07;;
19036;SDS011;9651;49.138;8.900;2023-04-25T18:55:31;17.23;;;11.80;;
19036;SDS011;9651;49.138;8.900;2023-04-25T18:59:33;13.40;;;7.17;;
19036;SDS011;9651;49.138;8.900;2023-04-25T19:03:35;9.97;;;7.00;;
19036;SDS011;9651;49.138;8.900;2023-04-25T19:07:38;13.33;;;7.60;;
19036;SDS011;9651;49.138;8.900;2023-04-25T19:11:40;11.53;;;7.30;;
19036;SDS011;9651;49.138;8.900;2023-04-25T19:15:42;10.37;;;6.43;;
19036;SDS011;9651;49.138;8.900;2023-04-25T19:19:44;13.70;;;7.33;;
19036;SDS011;9651;49.138;8.900;2023-04-25T19:23:47;10.20;;;7.00;;
19036;SDS011;9651;49.138;8.900;2023-04-25T19:27:51;13.37;;;6.50;;
19036;SDS011;9651;49.138;8.900;2023-04-25T19:31:53;9.47;;;6.30;;
19036;SDS011;9651;49.138;8.900;2023-04-25T19:35:56;12.23;;;7.63;;
19036;SDS011;9651;49.138;8.900;2023-04-25T19:39:59;12.33;;;8.03;;
19036;SDS011;9651;49.138;8.900;2023-04-25T19:44:01;12.90;;;7.37;;
19036;SDS011;9651;49.138;8.900;2023-04-25T19:48:05;13.77;;;8.80;;
19036;SDS011;9651;49.138;8.900;2023-04-25T19:52:09;13.10;;;7.53;;
19036;SDS011;9651;49.138;8.900;2023-04-25T19:56:15;12.43;;;7.77;;
19036;SDS011;9651;49.138;8.900;2023-04-25T20:00:17;13.10;;;7.80;;
19036;SDS011;9651;49.138;8.900;2023-04-25T20:04:21;14.00;;;8.90;;
19036;SDS011;9651;49.138;8.900;2023-04-25T20:08:23;15.07;;;8.60;;
19036;SDS011;9651;49.138;8.900;2023-04-25T20:12:27;12.23;;;8.07;;
19036;SDS011;9651;49.138;8.900;2023-04-25T20:16:29;13.07;;;8.37;;
19036;SDS011;9651;49.138;8.900;2023-04-25T20:20:31;17.20;;;9.37;;
19036;SDS011;9651;49.138;8.900;2023-04-25T20:24:33;21.53;;;8.67;;
19036;SDS011;9651;49.138;8.900;2023-04-25T20:28:36;13.07;;;8.20;;
19036;SDS011;9651;49.138;8.900;2023-04-25T20:32:38;14.00;;;8.20;;
19036;SDS011;9651;49.138;8.900;2023-04-25T20:36:41;14.07;;;8.13;;
19036;SDS011;9651;49.138;8.900;2023-04-25T20:40:43;14.53;;;8.97;;
19036;SDS011;9651;49.138;8.900;2023-04-25T20:44:46;14.70;;;8.93;;
19036;SDS011;9651;49.138;8.900;2023-04-25T20:48:48;14.63;;;9.13;;
19036;SDS011;9651;49.138;8.900;2023-04-25T20:52:51;16.50;;;9.13;;
19036;SDS011;9651;49.138;8.900;2023-04-25T20:56:53;15.53;;;8.93;;
19036;SDS011;9651;49.138;8.900;2023-04-25T21:00:57;14.57;;;8.70;;
19036;SDS011;9651;49.138;8.900;2023-04-25T21:04:59;15.17;;;9.47;;
19036;SDS011;9651;49.138;8.900;2023-04-25T21:09:01;13.73;;;9.47;;
19036;SDS011;9651;49.138;8.900;2023-04-25T21:13:03;13.57;;;9.37;;
19036;SDS011;9651;49.138;8.900;2023-04-25T21:17:07;13.13;;;9.17;;
19036;SDS011;9651;49.138;8.900;2023-04-25T21:21:09;14.33;;;9.57;;
19036;SDS011;9651;49.138;8.900;2023-04-25T21:25:11;18.20;;;9.27;;
19036;SDS011;9651;49.138;8.900;2023-04-25T21:29:14;14.73;;;8.77;;
19036;SDS011;9651;49.138;8.900;2023-04-25T21:33:17;15.27;;;9.23;;
19036;SDS011;9651;49.138;8.900;2023-04-25T21:37:19;16.83;;;8.53;;
19036;SDS011;9651;49.138;8.900;2023-04-25T21:41:21;20.93;;;8.83;;
19036;SDS011;9651;49.138;8.900;2023-04-25T21:45:24;13.23;;;8.33;;
19036;SDS011;9651;49.138;8.900;2023-04-25T21:49:29;14.30;;;6.90;;
19036;SDS011;9651;49.138;8.900;2023-04-25T21:53:32;10.27;;;6.90;;
19036;SDS011;9651;49.138;8.900;2023-04-25T21:57:33;10.90;;;6.57;;
19036;SDS011;9651;49.138;8.900;2023-04-25T22:01:36;15.30;;;7.03;;
19036;SDS011;9651;49.138;8.900;2023-04-25T22:05:39;10.43;;;6.07;;
19036;SDS011;9651;49.138;8.900;2023-04-25T22:09:41;14.83;;;7.27;;
19036;SDS011;9651;49.138;8.900;2023-04-25T22:13:43;12.77;;;7.53;;
19036;SDS011;9651;49.138;8.900;2023-04-25T22:17:46;11.47;;;6.93;;
19036;SDS011;9651;49.138;8.900;2023-04-25T22:21:49;18.27;;;8.13;;
19036;SDS011;9651;49.138;8.900;2023-04-25T22:25:51;12.03;;;7.37;;
19036;SDS011;9651;49.138;8.900;2023-04-25T22:29:53;13.30;;;7.37;;
19036;SDS011;9651;49.138;8.900;2023-04-25T22:33:55;13.33;;;7.60;;
19036;SDS011;9651;49.138;8.900;2023-04-25T22:37:58;12.70;;;7.30;;
19036;SDS011;9651;49.138;8.900;2023-04-25T22:42:00;10.80;;;6.87;;
19036;SDS011;9651;49.138;8.900;2023-04-25T22:46:02;12.03;;;7.53;;
19036;SDS011;9651;49.138;8.900;2023-04-25T22:50:04;12.20;;;7.43;;
19036;SDS011;9651;49.138;8.900;2023-04-25T22:54:13;18.60;;;8.20;;
19036;SDS011;9651;49.138;8.900;2023-04-25T22:58:15;14.03;;;7.80;;
19036;SDS011;9651;49.138;8.900;2023-04-25T23:02:17;14.40;;;8.20;;
19036;SDS011;9651;49.138;8.900;2023-04-25T23:06:19;11.70;;;7.93;;
19036;SDS011;9651;49.138;8.900;2023-04-25T23:10:23;11.20;;;7.70;;
19036;SDS011;9651;49.138;8.900;2023-04-25T23:14:25;13.60;;;7.90;;
19036;SDS011;9651;49.138;8.900;2023-04-25T23:18:27;13.73;;;8.80;;
19036;SDS011;9651;49.138;8.900;2023-04-25T23:22:29;13.37;;;8.50;;
19036;SDS011;9651;49.138;8.900;2023-04-25T23:26:33;14.77;;;8.17;;
19036;SDS011;9651;49.138;8.900;2023-04-25T23:30:35;14.73;;;8.10;;
19036;SDS011;9651;49.138;8.900;2023-04-25T23:34:37;11.53;;;8.00;;
19036;SDS011;9651;49.138;8.900;2023-04-25T23:38:39;11.57;;;8.13;;
19036;SDS011;9651;49.138;8.900;2023-04-25T23:42:43;13.33;;;7.83;;
19036;SDS011;9651;49.138;8.900;2023-04-25T23:46:44;11.77;;;7.73;;
19036;SDS011;9651;49.138;8.900;2023-04-25T23:50:46;13.50;;;7.77;;
19036;SDS011;9651;49.138;8.900;2023-04-25T23:54:48;13.20;;;7.40;;
19036;SDS011;9651;49.138;8.900;2023-04-25T23:58:52;16.10;;;8.33;;
